sensor_id;sensor_type;location;lat;lon;timestamp;P1;durP1;ratioP1;P2;durP2;ratioP2
43710;SDS011;29309;42.682;23.372;2023-05-15T00:00:50;3.78;;;2.38;;
43710;SDS011;29309;42.682;23.372;2023-05-15T00:03:16;5.45;;;2.50;;
43710;SDS011;29309;42.682;23.372;2023-05-15T00:05:42;4.63;;;2.42;;
43710;SDS011;29309;42.682;23.372;2023-05-15T00:08:08;3.00;;;2.10;;
43710;SDS011;29309;42.682;23.372;2023-05-15T00:10:34;3.28;;;2.20;;
43710;SDS011;29309;42.682;23.372;2023-05-15T00:12:59;2.88;;;1.80;;
43710;SDS011;29309;42.682;23.372;2023-05-15T00:15:25;3.78;;;1.95;;
43710;SDS011;29309;42.682;23.372;2023-05-15T00:17:50;2.88;;;1.92;;
43710;SDS011;29309;42.682;23.372;2023-05-15T00:20:16;2.55;;;1.67;;
43710;SDS011;29309;42.682;23.372;2023-05-15T00:22:41;3.67;;;2.30;;
43710;SDS011;29309;42.682;23.372;2023-05-15T00:25:07;3.20;;;2.50;;
43710;SDS011;29309;42.682;23.372;2023-05-15T00:27:33;3.63;;;2.03;;
43710;SDS011;29309;42.682;23.372;2023-05-15T00:29:58;3.17;;;2.33;;
43710;SDS011;29309;42.682;23.372;2023-05-15T00:32:23;5.03;;;2.42;;
43710;SDS011;29309;42.682;23.372;2023-05-15T00:34:49;4.18;;;2.53;;
43710;SDS011;29309;42.682;23.372;2023-05-15T00:37:14;4.93;;;3.33;;
43710;SDS011;29309;42.682;23.372;2023-05-15T00:39:40;3.80;;;2.45;;
43710;SDS011;29309;42.682;23.372;2023-05-15T00:42:05;5.55;;;3.10;;
43710;SDS011;29309;42.682;23.372;2023-05-15T00:44:32;4.30;;;2.58;;
43710;SDS011;29309;42.682;23.372;2023-05-15T00:46:58;4.22;;;3.10;;
43710;SDS011;29309;42.682;23.372;2023-05-15T00:49:27;4.85;;;3.08;;
43710;SDS011;29309;42.682;23.372;2023-05-15T00:51:54;5.07;;;3.72;;
43710;SDS011;29309;42.682;23.372;2023-05-15T00:54:25;5.55;;;3.60;;
43710;SDS011;29309;42.682;23.372;2023-05-15T00:56:51;5.47;;;3.22;;
43710;SDS011;29309;42.682;23.372;2023-05-15T00:59:19;6.75;;;3.17;;
43710;SDS011;29309;42.682;23.372;2023-05-15T01:01:46;4.45;;;2.67;;
43710;SDS011;29309;42.682;23.372;2023-05-15T01:04:12;5.13;;;3.28;;
43710;SDS011;29309;42.682;23.372;2023-05-15T01:06:37;4.55;;;2.70;;
43710;SDS011;29309;42.682;23.372;2023-05-15T01:09:03;4.57;;;3.13;;
43710;SDS011;29309;42.682;23.372;2023-05-15T01:11:30;4.15;;;2.72;;
43710;SDS011;29309;42.682;23.372;2023-05-15T01:14:04;6.82;;;2.80;;
43710;SDS011;29309;42.682;23.372;2023-05-15T01:16:31;6.05;;;2.90;;
43710;SDS011;29309;42.682;23.372;2023-05-15T01:18:57;5.75;;;3.50;;
43710;SDS011;29309;42.682;23.372;2023-05-15T01:21:30;5.78;;;3.67;;
43710;SDS011;29309;42.682;23.372;2023-05-15T01:32:09;7.07;;;3.03;;
43710;SDS011;29309;42.682;23.372;2023-05-15T01:37:14;4.72;;;3.20;;
43710;SDS011;29309;42.682;23.372;2023-05-15T01:39:46;6.18;;;3.90;;
43710;SDS011;29309;42.682;23.372;2023-05-15T01:42:16;5.25;;;3.40;;
43710;SDS011;29309;42.682;23.372;2023-05-15T01:44:44;6.85;;;3.83;;
43710;SDS011;29309;42.682;23.372;2023-05-15T01:47:17;8.32;;;3.83;;
43710;SDS011;29309;42.682;23.372;2023-05-15T01:49:45;7.38;;;3.97;;
43710;SDS011;29309;42.682;23.372;2023-05-15T01:52:19;7.07;;;4.35;;
43710;SDS011;29309;42.682;23.372;2023-05-15T01:54:51;7.90;;;4.47;;
43710;SDS011;29309;42.682;23.372;2023-05-15T01:57:19;7.65;;;4.25;;
43710;SDS011;29309;42.682;23.372;2023-05-15T01:59:46;5.53;;;4.20;;
43710;SDS011;29309;42.682;23.372;2023-05-15T02:02:13;5.40;;;3.80;;
43710;SDS011;29309;42.682;23.372;2023-05-15T02:04:39;7.10;;;4.55;;
43710;SDS011;29309;42.682;23.372;2023-05-15T02:07:05;8.07;;;4.82;;
43710;SDS011;29309;42.682;23.372;2023-05-15T02:09:31;6.55;;;4.07;;
43710;SDS011;29309;42.682;23.372;2023-05-15T02:11:59;7.82;;;4.38;;
43710;SDS011;29309;42.682;23.372;2023-05-15T02:14:25;5.57;;;3.78;;
43710;SDS011;29309;42.682;23.372;2023-05-15T02:16:52;7.10;;;3.90;;
43710;SDS011;29309;42.682;23.372;2023-05-15T02:19:18;5.82;;;3.83;;
43710;SDS011;29309;42.682;23.372;2023-05-15T02:21:43;7.45;;;4.68;;
43710;SDS011;29309;42.682;23.372;2023-05-15T02:24:09;6.40;;;4.25;;
43710;SDS011;29309;42.682;23.372;2023-05-15T02:37:20;6.57;;;4.60;;
43710;SDS011;29309;42.682;23.372;2023-05-15T02:39:51;5.55;;;4.03;;
43710;SDS011;29309;42.682;23.372;2023-05-15T02:42:18;6.95;;;4.20;;
43710;SDS011;29309;42.682;23.372;2023-05-15T02:44:45;11.20;;;5.13;;
43710;SDS011;29309;42.682;23.372;2023-05-15T02:47:10;6.90;;;3.90;;
43710;SDS011;29309;42.682;23.372;2023-05-15T02:49:37;6.15;;;4.25;;
43710;SDS011;29309;42.682;23.372;2023-05-15T02:52:03;9.68;;;4.95;;
43710;SDS011;29309;42.682;23.372;2023-05-15T02:54:29;9.02;;;4.07;;
43710;SDS011;29309;42.682;23.372;2023-05-15T02:56:55;7.05;;;4.80;;
43710;SDS011;29309;42.682;23.372;2023-05-15T02:59:20;7.13;;;4.30;;
43710;SDS011;29309;42.682;23.372;2023-05-15T03:01:46;5.60;;;3.90;;
43710;SDS011;29309;42.682;23.372;2023-05-15T03:04:15;11.30;;;5.35;;
43710;SDS011;29309;42.682;23.372;2023-05-15T03:06:40;8.80;;;5.20;;
43710;SDS011;29309;42.682;23.372;2023-05-15T03:09:06;8.55;;;4.38;;
43710;SDS011;29309;42.682;23.372;2023-05-15T03:11:32;8.55;;;4.95;;
43710;SDS011;29309;42.682;23.372;2023-05-15T03:13:57;7.13;;;4.60;;
43710;SDS011;29309;42.682;23.372;2023-05-15T03:16:26;6.72;;;4.22;;
43710;SDS011;29309;42.682;23.372;2023-05-15T03:18:52;7.10;;;4.55;;
43710;SDS011;29309;42.682;23.372;2023-05-15T03:21:18;10.93;;;4.60;;
43710;SDS011;29309;42.682;23.372;2023-05-15T03:23:44;8.15;;;5.07;;
43710;SDS011;29309;42.682;23.372;2023-05-15T03:26:09;7.88;;;5.45;;
43710;SDS011;29309;42.682;23.372;2023-05-15T03:28:36;9.63;;;5.38;;
43710;SDS011;29309;42.682;23.372;2023-05-15T03:31:02;7.82;;;5.43;;
43710;SDS011;29309;42.682;23.372;2023-05-15T03:33:29;7.63;;;5.60;;
43710;SDS011;29309;42.682;23.372;2023-05-15T03:35:54;7.50;;;5.30;;
43710;SDS011;29309;42.682;23.372;2023-05-15T03:38:20;11.38;;;7.43;;
43710;SDS011;29309;42.682;23.372;2023-05-15T03:40:45;11.23;;;7.32;;
43710;SDS011;29309;42.682;23.372;2023-05-15T03:43:11;9.82;;;6.32;;
43710;SDS011;29309;42.682;23.372;2023-05-15T03:45:36;9.93;;;6.90;;
43710;SDS011;29309;42.682;23.372;2023-05-15T03:48:03;11.32;;;6.32;;
43710;SDS011;29309;42.682;23.372;2023-05-15T03:50:29;11.82;;;7.50;;
43710;SDS011;29309;42.682;23.372;2023-05-15T03:52:54;12.50;;;7.68;;
43710;SDS011;29309;42.682;23.372;2023-05-15T03:55:19;10.88;;;7.00;;
43710;SDS011;29309;42.682;23.372;2023-05-15T03:57:45;11.82;;;7.40;;
43710;SDS011;29309;42.682;23.372;2023-05-15T04:00:11;11.30;;;6.80;;
43710;SDS011;29309;42.682;23.372;2023-05-15T04:02:37;10.60;;;6.38;;
43710;SDS011;29309;42.682;23.372;2023-05-15T04:05:03;11.90;;;7.38;;
43710;SDS011;29309;42.682;23.372;2023-05-15T04:07:30;9.13;;;6.60;;
43710;SDS011;29309;42.682;23.372;2023-05-15T04:09:56;14.50;;;8.13;;
43710;SDS011;29309;42.682;23.372;2023-05-15T04:12:25;12.50;;;7.57;;
43710;SDS011;29309;42.682;23.372;2023-05-15T04:14:53;12.43;;;7.38;;
43710;SDS011;29309;42.682;23.372;2023-05-15T04:17:20;11.15;;;7.38;;
43710;SDS011;29309;42.682;23.372;2023-05-15T04:19:45;12.43;;;7.63;;
43710;SDS011;29309;42.682;23.372;2023-05-15T04:22:12;12.55;;;7.53;;
43710;SDS011;29309;42.682;23.372;2023-05-15T04:24:37;12.38;;;7.72;;
43710;SDS011;29309;42.682;23.372;2023-05-15T04:27:03;12.20;;;7.25;;
43710;SDS011;29309;42.682;23.372;2023-05-15T04:29:29;11.85;;;7.85;;
43710;SDS011;29309;42.682;23.372;2023-05-15T04:31:54;13.88;;;8.23;;
43710;SDS011;29309;42.682;23.372;2023-05-15T04:34:20;13.30;;;8.00;;
43710;SDS011;29309;42.682;23.372;2023-05-15T04:36:45;11.77;;;7.90;;
43710;SDS011;29309;42.682;23.372;2023-05-15T04:39:11;11.85;;;7.72;;
43710;SDS011;29309;42.682;23.372;2023-05-15T04:41:36;12.10;;;7.68;;
43710;SDS011;29309;42.682;23.372;2023-05-15T04:44:02;13.13;;;7.32;;
43710;SDS011;29309;42.682;23.372;2023-05-15T04:46:27;14.30;;;8.30;;
43710;SDS011;29309;42.682;23.372;2023-05-15T04:48:53;12.05;;;7.88;;
43710;SDS011;29309;42.682;23.372;2023-05-15T04:51:18;12.82;;;8.18;;
43710;SDS011;29309;42.682;23.372;2023-05-15T04:53:44;12.00;;;7.22;;
43710;SDS011;29309;42.682;23.372;2023-05-15T04:56:09;13.05;;;7.70;;
43710;SDS011;29309;42.682;23.372;2023-05-15T04:58:35;10.70;;;6.32;;
43710;SDS011;29309;42.682;23.372;2023-05-15T05:01:00;11.60;;;7.45;;
43710;SDS011;29309;42.682;23.372;2023-05-15T05:03:25;9.63;;;6.32;;
43710;SDS011;29309;42.682;23.372;2023-05-15T05:05:51;11.10;;;6.68;;
43710;SDS011;29309;42.682;23.372;2023-05-15T05:08:16;12.95;;;7.07;;
43710;SDS011;29309;42.682;23.372;2023-05-15T05:10:42;12.80;;;6.28;;
43710;SDS011;29309;42.682;23.372;2023-05-15T05:13:07;13.07;;;7.32;;
43710;SDS011;29309;42.682;23.372;2023-05-15T05:15:33;10.80;;;6.45;;
43710;SDS011;29309;42.682;23.372;2023-05-15T05:17:59;12.93;;;6.53;;
43710;SDS011;29309;42.682;23.372;2023-05-15T05:20:24;14.35;;;6.55;;
43710;SDS011;29309;42.682;23.372;2023-05-15T05:22:50;11.70;;;7.68;;
43710;SDS011;29309;42.682;23.372;2023-05-15T05:25:15;12.68;;;6.63;;
43710;SDS011;29309;42.682;23.372;2023-05-15T05:27:41;13.02;;;7.25;;
43710;SDS011;29309;42.682;23.372;2023-05-15T05:30:07;10.10;;;6.68;;
43710;SDS011;29309;42.682;23.372;2023-05-15T05:32:33;13.88;;;7.55;;
43710;SDS011;29309;42.682;23.372;2023-05-15T05:34:58;11.23;;;6.57;;
43710;SDS011;29309;42.682;23.372;2023-05-15T05:37:23;13.23;;;7.05;;
43710;SDS011;29309;42.682;23.372;2023-05-15T05:39:49;14.07;;;7.30;;
43710;SDS011;29309;42.682;23.372;2023-05-15T05:42:15;14.40;;;8.25;;
43710;SDS011;29309;42.682;23.372;2023-05-15T05:44:40;15.95;;;8.40;;
43710;SDS011;29309;42.682;23.372;2023-05-15T05:47:06;12.95;;;7.53;;
43710;SDS011;29309;42.682;23.372;2023-05-15T05:49:31;15.20;;;8.10;;
43710;SDS011;29309;42.682;23.372;2023-05-15T05:52:03;17.77;;;8.10;;
43710;SDS011;29309;42.682;23.372;2023-05-15T05:54:29;14.05;;;6.95;;
43710;SDS011;29309;42.682;23.372;2023-05-15T05:56:54;14.90;;;8.80;;
43710;SDS011;29309;42.682;23.372;2023-05-15T05:59:20;20.98;;;9.23;;
43710;SDS011;29309;42.682;23.372;2023-05-15T06:01:46;19.40;;;9.80;;
43710;SDS011;29309;42.682;23.372;2023-05-15T06:04:13;16.23;;;8.60;;
43710;SDS011;29309;42.682;23.372;2023-05-15T06:06:39;15.32;;;8.50;;
43710;SDS011;29309;42.682;23.372;2023-05-15T06:09:05;18.45;;;8.52;;
43710;SDS011;29309;42.682;23.372;2023-05-15T06:11:31;14.85;;;7.25;;
43710;SDS011;29309;42.682;23.372;2023-05-15T06:13:57;16.13;;;8.65;;
43710;SDS011;29309;42.682;23.372;2023-05-15T06:16:22;17.55;;;7.82;;
43710;SDS011;29309;42.682;23.372;2023-05-15T06:18:47;15.30;;;8.85;;
43710;SDS011;29309;42.682;23.372;2023-05-15T06:21:13;16.05;;;8.52;;
43710;SDS011;29309;42.682;23.372;2023-05-15T06:23:38;16.63;;;8.57;;
43710;SDS011;29309;42.682;23.372;2023-05-15T06:26:04;13.20;;;7.55;;
43710;SDS011;29309;42.682;23.372;2023-05-15T06:28:29;12.93;;;7.20;;
43710;SDS011;29309;42.682;23.372;2023-05-15T06:30:55;14.13;;;7.13;;
43710;SDS011;29309;42.682;23.372;2023-05-15T06:33:20;15.07;;;8.00;;
43710;SDS011;29309;42.682;23.372;2023-05-15T06:35:46;13.05;;;7.82;;
43710;SDS011;29309;42.682;23.372;2023-05-15T06:38:12;15.07;;;7.93;;
43710;SDS011;29309;42.682;23.372;2023-05-15T06:40:37;15.70;;;7.93;;
43710;SDS011;29309;42.682;23.372;2023-05-15T06:43:02;14.00;;;7.78;;
43710;SDS011;29309;42.682;23.372;2023-05-15T06:45:28;13.50;;;8.10;;
43710;SDS011;29309;42.682;23.372;2023-05-15T06:47:53;13.00;;;7.93;;
43710;SDS011;29309;42.682;23.372;2023-05-15T06:50:19;20.83;;;8.07;;
43710;SDS011;29309;42.682;23.372;2023-05-15T06:52:44;12.48;;;6.95;;
43710;SDS011;29309;42.682;23.372;2023-05-15T06:55:09;13.27;;;7.47;;
43710;SDS011;29309;42.682;23.372;2023-05-15T06:57:35;12.23;;;7.07;;
43710;SDS011;29309;42.682;23.372;2023-05-15T07:00:00;12.60;;;7.68;;
43710;SDS011;29309;42.682;23.372;2023-05-15T07:02:26;15.32;;;7.13;;
43710;SDS011;29309;42.682;23.372;2023-05-15T07:04:51;13.65;;;7.88;;
43710;SDS011;29309;42.682;23.372;2023-05-15T07:07:16;13.35;;;7.25;;
43710;SDS011;29309;42.682;23.372;2023-05-15T07:09:42;13.45;;;7.38;;
43710;SDS011;29309;42.682;23.372;2023-05-15T07:12:12;14.85;;;7.55;;
43710;SDS011;29309;42.682;23.372;2023-05-15T07:14:38;10.77;;;6.50;;
43710;SDS011;29309;42.682;23.372;2023-05-15T07:17:03;10.30;;;6.25;;
43710;SDS011;29309;42.682;23.372;2023-05-15T07:19:29;10.88;;;6.15;;
43710;SDS011;29309;42.682;23.372;2023-05-15T07:21:55;10.25;;;6.20;;
43710;SDS011;29309;42.682;23.372;2023-05-15T07:24:20;10.27;;;6.95;;
43710;SDS011;29309;42.682;23.372;2023-05-15T07:26:46;14.23;;;7.00;;
43710;SDS011;29309;42.682;23.372;2023-05-15T07:29:11;12.13;;;6.35;;
43710;SDS011;29309;42.682;23.372;2023-05-15T07:31:36;10.23;;;6.53;;
43710;SDS011;29309;42.682;23.372;2023-05-15T07:34:04;10.38;;;6.63;;
43710;SDS011;29309;42.682;23.372;2023-05-15T07:36:29;17.05;;;8.95;;
43710;SDS011;29309;42.682;23.372;2023-05-15T07:38:55;15.43;;;7.65;;
43710;SDS011;29309;42.682;23.372;2023-05-15T07:41:21;12.02;;;8.13;;
43710;SDS011;29309;42.682;23.372;2023-05-15T07:43:46;18.02;;;7.60;;
43710;SDS011;29309;42.682;23.372;2023-05-15T07:46:12;13.93;;;7.65;;
43710;SDS011;29309;42.682;23.372;2023-05-15T07:48:37;13.82;;;7.57;;
43710;SDS011;29309;42.682;23.372;2023-05-15T07:51:03;12.65;;;7.03;;
43710;SDS011;29309;42.682;23.372;2023-05-15T07:53:28;15.35;;;8.13;;
43710;SDS011;29309;42.682;23.372;2023-05-15T07:55:54;18.00;;;8.38;;
43710;SDS011;29309;42.682;23.372;2023-05-15T07:58:19;14.50;;;7.43;;
43710;SDS011;29309;42.682;23.372;2023-05-15T08:00:45;15.45;;;8.77;;
43710;SDS011;29309;42.682;23.372;2023-05-15T08:03:10;15.57;;;8.85;;
43710;SDS011;29309;42.682;23.372;2023-05-15T08:05:36;16.65;;;7.82;;
43710;SDS011;29309;42.682;23.372;2023-05-15T08:08:02;13.65;;;7.97;;
43710;SDS011;29309;42.682;23.372;2023-05-15T08:10:27;15.50;;;9.02;;
43710;SDS011;29309;42.682;23.372;2023-05-15T08:12:52;14.27;;;8.48;;
43710;SDS011;29309;42.682;23.372;2023-05-15T08:15:18;16.48;;;8.95;;
43710;SDS011;29309;42.682;23.372;2023-05-15T08:17:43;15.80;;;8.73;;
43710;SDS011;29309;42.682;23.372;2023-05-15T08:20:09;13.93;;;8.18;;
43710;SDS011;29309;42.682;23.372;2023-05-15T08:22:35;16.42;;;8.63;;
43710;SDS011;29309;42.682;23.372;2023-05-15T08:25:01;16.73;;;8.35;;
43710;SDS011;29309;42.682;23.372;2023-05-15T08:27:27;16.35;;;9.15;;
43710;SDS011;29309;42.682;23.372;2023-05-15T08:29:53;15.23;;;8.43;;
43710;SDS011;29309;42.682;23.372;2023-05-15T08:32:18;17.02;;;10.07;;
43710;SDS011;29309;42.682;23.372;2023-05-15T08:34:44;16.70;;;8.73;;
43710;SDS011;29309;42.682;23.372;2023-05-15T08:37:09;14.63;;;8.38;;
43710;SDS011;29309;42.682;23.372;2023-05-15T08:39:35;16.30;;;8.35;;
43710;SDS011;29309;42.682;23.372;2023-05-15T08:44:29;13.57;;;8.02;;
43710;SDS011;29309;42.682;23.372;2023-05-15T08:46:56;14.68;;;7.25;;
43710;SDS011;29309;42.682;23.372;2023-05-15T08:52:15;15.10;;;7.05;;
43710;SDS011;29309;42.682;23.372;2023-05-15T08:54:40;13.25;;;8.07;;
43710;SDS011;29309;42.682;23.372;2023-05-15T08:57:09;15.40;;;6.85;;
43710;SDS011;29309;42.682;23.372;2023-05-15T08:59:35;12.05;;;7.60;;
43710;SDS011;29309;42.682;23.372;2023-05-15T09:02:01;13.63;;;7.75;;
43710;SDS011;29309;42.682;23.372;2023-05-15T09:04:27;15.07;;;7.53;;
43710;SDS011;29309;42.682;23.372;2023-05-15T09:06:53;14.88;;;8.10;;
43710;SDS011;29309;42.682;23.372;2023-05-15T09:09:19;12.90;;;7.72;;
43710;SDS011;29309;42.682;23.372;2023-05-15T09:11:45;13.52;;;8.43;;
43710;SDS011;29309;42.682;23.372;2023-05-15T09:14:12;14.73;;;7.93;;
43710;SDS011;29309;42.682;23.372;2023-05-15T09:16:38;15.88;;;8.68;;
43710;SDS011;29309;42.682;23.372;2023-05-15T09:19:06;19.33;;;9.82;;
43710;SDS011;29309;42.682;23.372;2023-05-15T09:21:33;14.00;;;7.93;;
43710;SDS011;29309;42.682;23.372;2023-05-15T09:26:59;20.90;;;9.48;;
43710;SDS011;29309;42.682;23.372;2023-05-15T09:29:29;17.30;;;8.15;;
43710;SDS011;29309;42.682;23.372;2023-05-15T09:31:56;14.18;;;8.35;;
43710;SDS011;29309;42.682;23.372;2023-05-15T09:34:32;16.48;;;8.20;;
43710;SDS011;29309;42.682;23.372;2023-05-15T09:37:00;15.32;;;8.10;;
43710;SDS011;29309;42.682;23.372;2023-05-15T09:39:26;16.00;;;9.00;;
43710;SDS011;29309;42.682;23.372;2023-05-15T09:41:52;14.73;;;8.73;;
43710;SDS011;29309;42.682;23.372;2023-05-15T09:44:23;16.25;;;7.97;;
43710;SDS011;29309;42.682;23.372;2023-05-15T09:46:49;12.15;;;7.45;;
43710;SDS011;29309;42.682;23.372;2023-05-15T09:49:16;11.20;;;7.00;;
43710;SDS011;29309;42.682;23.372;2023-05-15T09:51:42;10.98;;;7.28;;
43710;SDS011;29309;42.682;23.372;2023-05-15T09:54:17;14.85;;;6.80;;
43710;SDS011;29309;42.682;23.372;2023-05-15T09:56:43;9.77;;;7.13;;
43710;SDS011;29309;42.682;23.372;2023-05-15T09:59:13;9.82;;;6.72;;
43710;SDS011;29309;42.682;23.372;2023-05-15T10:01:43;11.27;;;6.70;;
43710;SDS011;29309;42.682;23.372;2023-05-15T10:04:10;13.00;;;6.90;;
43710;SDS011;29309;42.682;23.372;2023-05-15T10:06:39;11.23;;;6.85;;
43710;SDS011;29309;42.682;23.372;2023-05-15T10:09:06;12.38;;;6.72;;
43710;SDS011;29309;42.682;23.372;2023-05-15T10:11:36;12.65;;;7.63;;
43710;SDS011;29309;42.682;23.372;2023-05-15T10:14:04;12.32;;;6.53;;
43710;SDS011;29309;42.682;23.372;2023-05-15T10:16:32;9.98;;;6.13;;
43710;SDS011;29309;42.682;23.372;2023-05-15T10:18:59;9.13;;;6.30;;
43710;SDS011;29309;42.682;23.372;2023-05-15T10:21:33;12.05;;;6.93;;
43710;SDS011;29309;42.682;23.372;2023-05-15T10:24:01;11.05;;;6.22;;
43710;SDS011;29309;42.682;23.372;2023-05-15T10:26:32;10.48;;;6.15;;
43710;SDS011;29309;42.682;23.372;2023-05-15T10:29:13;11.40;;;7.43;;
43710;SDS011;29309;42.682;23.372;2023-05-15T10:31:41;13.60;;;6.45;;
43710;SDS011;29309;42.682;23.372;2023-05-15T10:34:07;10.63;;;6.20;;
43710;SDS011;29309;42.682;23.372;2023-05-15T10:36:34;11.98;;;7.13;;
43710;SDS011;29309;42.682;23.372;2023-05-15T10:39:05;10.73;;;6.60;;
43710;SDS011;29309;42.682;23.372;2023-05-15T10:41:35;10.40;;;6.28;;
43710;SDS011;29309;42.682;23.372;2023-05-15T10:44:03;14.18;;;6.65;;
43710;SDS011;29309;42.682;23.372;2023-05-15T10:46:30;10.13;;;6.63;;
43710;SDS011;29309;42.682;23.372;2023-05-15T10:48:58;11.00;;;6.35;;
43710;SDS011;29309;42.682;23.372;2023-05-15T10:51:29;10.43;;;6.82;;
43710;SDS011;29309;42.682;23.372;2023-05-15T10:53:57;15.07;;;7.20;;
43710;SDS011;29309;42.682;23.372;2023-05-15T10:56:25;11.13;;;6.30;;
43710;SDS011;29309;42.682;23.372;2023-05-15T10:58:54;11.20;;;6.35;;
43710;SDS011;29309;42.682;23.372;2023-05-15T11:04:11;11.48;;;7.40;;
43710;SDS011;29309;42.682;23.372;2023-05-15T11:06:41;15.57;;;8.43;;
43710;SDS011;29309;42.682;23.372;2023-05-15T11:11:59;13.55;;;7.45;;
43710;SDS011;29309;42.682;23.372;2023-05-15T11:14:27;15.77;;;8.25;;
43710;SDS011;29309;42.682;23.372;2023-05-15T11:21:57;10.43;;;6.30;;
43710;SDS011;29309;42.682;23.372;2023-05-15T11:24:34;13.77;;;7.13;;
43710;SDS011;29309;42.682;23.372;2023-05-15T11:27:18;12.65;;;8.07;;
43710;SDS011;29309;42.682;23.372;2023-05-15T11:37:44;10.82;;;7.38;;
43710;SDS011;29309;42.682;23.372;2023-05-15T11:40:21;13.05;;;7.30;;
43710;SDS011;29309;42.682;23.372;2023-05-15T11:45:35;10.65;;;6.78;;
43710;SDS011;29309;42.682;23.372;2023-05-15T11:48:03;14.13;;;7.03;;
43710;SDS011;29309;42.682;23.372;2023-05-15T11:50:31;10.82;;;6.72;;
43710;SDS011;29309;42.682;23.372;2023-05-15T11:53:00;9.70;;;6.80;;
43710;SDS011;29309;42.682;23.372;2023-05-15T11:55:27;17.60;;;8.15;;
43710;SDS011;29309;42.682;23.372;2023-05-15T11:57:54;10.98;;;7.65;;
43710;SDS011;29309;42.682;23.372;2023-05-15T12:00:20;14.50;;;7.97;;
43710;SDS011;29309;42.682;23.372;2023-05-15T12:02:45;16.40;;;8.02;;
43710;SDS011;29309;42.682;23.372;2023-05-15T12:05:11;17.60;;;8.10;;
43710;SDS011;29309;42.682;23.372;2023-05-15T12:07:40;12.73;;;7.70;;
43710;SDS011;29309;42.682;23.372;2023-05-15T12:10:10;11.13;;;6.50;;
43710;SDS011;29309;42.682;23.372;2023-05-15T12:12:43;12.40;;;7.57;;
43710;SDS011;29309;42.682;23.372;2023-05-15T12:15:13;10.10;;;6.45;;
43710;SDS011;29309;42.682;23.372;2023-05-15T12:17:40;11.43;;;7.43;;
43710;SDS011;29309;42.682;23.372;2023-05-15T12:20:09;10.60;;;6.40;;
43710;SDS011;29309;42.682;23.372;2023-05-15T12:22:36;10.07;;;6.65;;
43710;SDS011;29309;42.682;23.372;2023-05-15T12:25:03;9.48;;;6.30;;
43710;SDS011;29309;42.682;23.372;2023-05-15T12:27:33;12.35;;;7.53;;
43710;SDS011;29309;42.682;23.372;2023-05-15T12:30:00;12.63;;;6.97;;
43710;SDS011;29309;42.682;23.372;2023-05-15T12:32:29;14.82;;;7.07;;
43710;SDS011;29309;42.682;23.372;2023-05-15T12:34:56;14.30;;;6.53;;
43710;SDS011;29309;42.682;23.372;2023-05-15T12:37:22;16.33;;;6.50;;
43710;SDS011;29309;42.682;23.372;2023-05-15T12:39:54;11.02;;;6.28;;
43710;SDS011;29309;42.682;23.372;2023-05-15T12:42:21;11.45;;;5.82;;
43710;SDS011;29309;42.682;23.372;2023-05-15T12:44:51;10.07;;;5.32;;
43710;SDS011;29309;42.682;23.372;2023-05-15T12:47:24;10.90;;;6.18;;
43710;SDS011;29309;42.682;23.372;2023-05-15T12:49:55;10.60;;;5.20;;
43710;SDS011;29309;42.682;23.372;2023-05-15T12:52:20;10.30;;;5.85;;
43710;SDS011;29309;42.682;23.372;2023-05-15T12:54:46;10.18;;;5.57;;
43710;SDS011;29309;42.682;23.372;2023-05-15T12:57:11;7.45;;;4.88;;
43710;SDS011;29309;42.682;23.372;2023-05-15T12:59:38;8.45;;;5.22;;
43710;SDS011;29309;42.682;23.372;2023-05-15T13:02:07;10.95;;;5.97;;
43710;SDS011;29309;42.682;23.372;2023-05-15T13:04:34;9.85;;;5.93;;
43710;SDS011;29309;42.682;23.372;2023-05-15T13:06:59;8.73;;;5.63;;
43710;SDS011;29309;42.682;23.372;2023-05-15T13:09:25;9.07;;;5.72;;
43710;SDS011;29309;42.682;23.372;2023-05-15T13:11:53;8.57;;;5.60;;
43710;SDS011;29309;42.682;23.372;2023-05-15T13:14:20;10.10;;;6.05;;
43710;SDS011;29309;42.682;23.372;2023-05-15T13:16:47;8.13;;;5.07;;
43710;SDS011;29309;42.682;23.372;2023-05-15T13:19:12;7.90;;;5.38;;
43710;SDS011;29309;42.682;23.372;2023-05-15T13:21:38;8.32;;;6.07;;
43710;SDS011;29309;42.682;23.372;2023-05-15T13:24:04;10.18;;;5.60;;
43710;SDS011;29309;42.682;23.372;2023-05-15T13:26:29;10.13;;;6.57;;
43710;SDS011;29309;42.682;23.372;2023-05-15T13:28:55;11.63;;;6.18;;
43710;SDS011;29309;42.682;23.372;2023-05-15T13:31:20;8.27;;;5.20;;
43710;SDS011;29309;42.682;23.372;2023-05-15T13:33:46;10.27;;;6.28;;
43710;SDS011;29309;42.682;23.372;2023-05-15T13:36:12;14.18;;;6.85;;
43710;SDS011;29309;42.682;23.372;2023-05-15T13:38:37;8.20;;;5.60;;
43710;SDS011;29309;42.682;23.372;2023-05-15T13:41:03;8.68;;;5.65;;
43710;SDS011;29309;42.682;23.372;2023-05-15T13:43:29;9.93;;;5.82;;
43710;SDS011;29309;42.682;23.372;2023-05-15T13:45:54;11.20;;;6.53;;
43710;SDS011;29309;42.682;23.372;2023-05-15T13:48:20;10.60;;;5.95;;
43710;SDS011;29309;42.682;23.372;2023-05-15T13:50:45;9.57;;;5.53;;
43710;SDS011;29309;42.682;23.372;2023-05-15T13:53:11;8.77;;;5.80;;
43710;SDS011;29309;42.682;23.372;2023-05-15T13:55:41;10.55;;;6.38;;
43710;SDS011;29309;42.682;23.372;2023-05-15T13:58:08;14.82;;;6.15;;
43710;SDS011;29309;42.682;23.372;2023-05-15T14:00:35;8.30;;;6.32;;
43710;SDS011;29309;42.682;23.372;2023-05-15T14:03:01;9.82;;;6.40;;
43710;SDS011;29309;42.682;23.372;2023-05-15T14:05:26;9.43;;;6.15;;
43710;SDS011;29309;42.682;23.372;2023-05-15T14:07:51;8.15;;;5.38;;
43710;SDS011;29309;42.682;23.372;2023-05-15T14:10:17;7.93;;;5.53;;
43710;SDS011;29309;42.682;23.372;2023-05-15T14:12:43;9.15;;;5.80;;
43710;SDS011;29309;42.682;23.372;2023-05-15T14:15:08;9.25;;;5.50;;
43710;SDS011;29309;42.682;23.372;2023-05-15T14:17:35;12.65;;;6.47;;
43710;SDS011;29309;42.682;23.372;2023-05-15T14:20:01;14.05;;;7.22;;
43710;SDS011;29309;42.682;23.372;2023-05-15T14:22:26;8.55;;;5.95;;
43710;SDS011;29309;42.682;23.372;2023-05-15T14:24:52;13.02;;;5.50;;
43710;SDS011;29309;42.682;23.372;2023-05-15T14:27:17;8.98;;;4.68;;
43710;SDS011;29309;42.682;23.372;2023-05-15T14:29:43;6.57;;;4.25;;
43710;SDS011;29309;42.682;23.372;2023-05-15T14:32:09;10.23;;;4.90;;
43710;SDS011;29309;42.682;23.372;2023-05-15T14:34:34;8.68;;;4.72;;
43710;SDS011;29309;42.682;23.372;2023-05-15T14:37:00;9.50;;;4.43;;
43710;SDS011;29309;42.682;23.372;2023-05-15T14:39:25;5.05;;;3.67;;
43710;SDS011;29309;42.682;23.372;2023-05-15T14:41:51;7.65;;;3.28;;
43710;SDS011;29309;42.682;23.372;2023-05-15T14:44:16;7.82;;;3.42;;
43710;SDS011;29309;42.682;23.372;2023-05-15T14:46:41;6.53;;;3.65;;
43710;SDS011;29309;42.682;23.372;2023-05-15T14:49:07;9.38;;;3.25;;
43710;SDS011;29309;42.682;23.372;2023-05-15T14:51:33;5.32;;;3.08;;
43710;SDS011;29309;42.682;23.372;2023-05-15T14:53:58;5.40;;;2.70;;
43710;SDS011;29309;42.682;23.372;2023-05-15T14:56:24;3.65;;;2.72;;
43710;SDS011;29309;42.682;23.372;2023-05-15T14:58:49;5.72;;;3.08;;
43710;SDS011;29309;42.682;23.372;2023-05-15T15:01:17;5.70;;;3.63;;
43710;SDS011;29309;42.682;23.372;2023-05-15T15:03:43;5.10;;;3.33;;
43710;SDS011;29309;42.682;23.372;2023-05-15T15:06:08;5.30;;;3.20;;
43710;SDS011;29309;42.682;23.372;2023-05-15T15:08:33;4.35;;;3.22;;
43710;SDS011;29309;42.682;23.372;2023-05-15T15:10:59;6.32;;;3.15;;
43710;SDS011;29309;42.682;23.372;2023-05-15T15:13:26;7.13;;;3.00;;